sensor_id;sensor_type;location;lat;lon;timestamp;P1;durP1;ratioP1;P2;durP2;ratioP2
67902;SDS011;54708;43.612;1.568;2023-01-15T00:00:50;15.48;;;5.93;;
67902;SDS011;54708;43.612;1.568;2023-01-15T00:03:16;22.35;;;6.57;;
67902;SDS011;54708;43.612;1.568;2023-01-15T00:05:41;19.98;;;6.00;;
67902;SDS011;54708;43.612;1.568;2023-01-15T00:08:06;12.88;;;6.10;;
67902;SDS011;54708;43.612;1.568;2023-01-15T00:10:32;14.75;;;6.22;;
67902;SDS011;54708;43.612;1.568;2023-01-15T00:12:57;12.30;;;6.28;;
67902;SDS011;54708;43.612;1.568;2023-01-15T00:15:23;14.05;;;5.90;;
67902;SDS011;54708;43.612;1.568;2023-01-15T00:17:48;18.08;;;7.05;;
67902;SDS011;54708;43.612;1.568;2023-01-15T00:20:13;17.15;;;5.85;;
67902;SDS011;54708;43.612;1.568;2023-01-15T00:22:39;14.48;;;6.25;;
67902;SDS011;54708;43.612;1.568;2023-01-15T00:25:05;13.95;;;6.95;;
67902;SDS011;54708;43.612;1.568;2023-01-15T00:27:49;17.83;;;6.22;;
67902;SDS011;54708;43.612;1.568;2023-01-15T00:30:15;12.65;;;6.18;;
67902;SDS011;54708;43.612;1.568;2023-01-15T00:32:41;15.18;;;5.50;;
67902;SDS011;54708;43.612;1.568;2023-01-15T00:35:12;16.33;;;6.28;;
67902;SDS011;54708;43.612;1.568;2023-01-15T00:37:38;16.92;;;6.90;;
67902;SDS011;54708;43.612;1.568;2023-01-15T00:40:04;12.20;;;5.93;;
67902;SDS011;54708;43.612;1.568;2023-01-15T00:42:29;16.80;;;6.80;;
67902;SDS011;54708;43.612;1.568;2023-01-15T00:44:55;14.90;;;5.95;;
67902;SDS011;54708;43.612;1.568;2023-01-15T00:47:20;17.77;;;6.50;;
67902;SDS011;54708;43.612;1.568;2023-01-15T00:49:46;14.65;;;6.70;;
67902;SDS011;54708;43.612;1.568;2023-01-15T00:52:11;12.70;;;6.05;;
67902;SDS011;54708;43.612;1.568;2023-01-15T00:54:37;16.00;;;6.30;;
67902;SDS011;54708;43.612;1.568;2023-01-15T00:57:02;12.95;;;5.28;;
67902;SDS011;54708;43.612;1.568;2023-01-15T00:59:27;16.20;;;6.03;;
67902;SDS011;54708;43.612;1.568;2023-01-15T01:01:53;19.45;;;7.20;;
67902;SDS011;54708;43.612;1.568;2023-01-15T01:04:18;18.35;;;6.70;;
67902;SDS011;54708;43.612;1.568;2023-01-15T01:06:44;10.48;;;5.72;;
67902;SDS011;54708;43.612;1.568;2023-01-15T01:09:11;11.05;;;5.63;;
67902;SDS011;54708;43.612;1.568;2023-01-15T01:11:37;13.25;;;6.65;;
67902;SDS011;54708;43.612;1.568;2023-01-15T01:14:03;18.83;;;6.88;;
67902;SDS011;54708;43.612;1.568;2023-01-15T01:19:00;13.25;;;5.95;;
67902;SDS011;54708;43.612;1.568;2023-01-15T01:21:28;16.92;;;6.85;;
67902;SDS011;54708;43.612;1.568;2023-01-15T01:23:54;11.60;;;6.53;;
67902;SDS011;54708;43.612;1.568;2023-01-15T01:26:19;16.35;;;6.20;;
67902;SDS011;54708;43.612;1.568;2023-01-15T01:28:49;23.45;;;6.85;;
67902;SDS011;54708;43.612;1.568;2023-01-15T01:31:15;12.02;;;6.35;;
67902;SDS011;54708;43.612;1.568;2023-01-15T01:33:41;15.23;;;6.75;;
67902;SDS011;54708;43.612;1.568;2023-01-15T01:36:06;15.93;;;6.85;;
67902;SDS011;54708;43.612;1.568;2023-01-15T01:38:32;17.10;;;7.40;;
67902;SDS011;54708;43.612;1.568;2023-01-15T01:40:57;10.20;;;6.60;;
67902;SDS011;54708;43.612;1.568;2023-01-15T01:43:27;20.17;;;7.28;;
67902;SDS011;54708;43.612;1.568;2023-01-15T01:45:53;18.85;;;7.20;;
67902;SDS011;54708;43.612;1.568;2023-01-15T01:48:20;12.02;;;5.88;;
67902;SDS011;54708;43.612;1.568;2023-01-15T01:50:49;22.08;;;7.93;;
67902;SDS011;54708;43.612;1.568;2023-01-15T01:53:24;16.52;;;6.32;;
67902;SDS011;54708;43.612;1.568;2023-01-15T01:55:52;14.85;;;6.97;;
67902;SDS011;54708;43.612;1.568;2023-01-15T01:58:18;16.23;;;6.93;;
67902;SDS011;54708;43.612;1.568;2023-01-15T02:00:45;10.18;;;6.90;;
67902;SDS011;54708;43.612;1.568;2023-01-15T02:03:12;24.33;;;7.75;;
67902;SDS011;54708;43.612;1.568;2023-01-15T02:05:39;15.05;;;7.18;;
67902;SDS011;54708;43.612;1.568;2023-01-15T02:08:06;11.73;;;6.63;;
67902;SDS011;54708;43.612;1.568;2023-01-15T02:10:32;12.18;;;6.03;;
67902;SDS011;54708;43.612;1.568;2023-01-15T02:13:10;15.38;;;7.90;;
67902;SDS011;54708;43.612;1.568;2023-01-15T02:15:44;19.55;;;7.00;;
67902;SDS011;54708;43.612;1.568;2023-01-15T02:18:15;17.00;;;9.13;;
67902;SDS011;54708;43.612;1.568;2023-01-15T02:28:43;19.17;;;8.10;;
67902;SDS011;54708;43.612;1.568;2023-01-15T02:33:40;17.25;;;7.00;;
67902;SDS011;54708;43.612;1.568;2023-01-15T02:36:11;12.52;;;7.38;;
67902;SDS011;54708;43.612;1.568;2023-01-15T02:38:44;14.95;;;7.90;;
67902;SDS011;54708;43.612;1.568;2023-01-15T02:41:11;20.52;;;8.70;;
67902;SDS011;54708;43.612;1.568;2023-01-15T02:43:43;17.60;;;7.75;;
67902;SDS011;54708;43.612;1.568;2023-01-15T02:46:10;12.95;;;8.35;;
67902;SDS011;54708;43.612;1.568;2023-01-15T02:48:38;16.13;;;7.47;;
67902;SDS011;54708;43.612;1.568;2023-01-15T02:51:09;15.25;;;7.07;;
67902;SDS011;54708;43.612;1.568;2023-01-15T02:53:37;14.98;;;6.68;;
67902;SDS011;54708;43.612;1.568;2023-01-15T02:56:06;18.10;;;8.52;;
67902;SDS011;54708;43.612;1.568;2023-01-15T02:58:40;15.95;;;8.35;;
67902;SDS011;54708;43.612;1.568;2023-01-15T03:01:13;18.83;;;8.73;;
67902;SDS011;54708;43.612;1.568;2023-01-15T03:07:09;24.80;;;8.75;;
67902;SDS011;54708;43.612;1.568;2023-01-15T03:09:23;21.35;;;8.82;;
67902;SDS011;54708;43.612;1.568;2023-01-15T03:11:59;17.02;;;8.40;;
67902;SDS011;54708;43.612;1.568;2023-01-15T03:14:36;16.17;;;7.55;;
67902;SDS011;54708;43.612;1.568;2023-01-15T03:17:14;20.13;;;10.13;;
67902;SDS011;54708;43.612;1.568;2023-01-15T03:22:27;18.88;;;9.90;;
67902;SDS011;54708;43.612;1.568;2023-01-15T03:25:10;20.98;;;8.68;;
67902;SDS011;54708;43.612;1.568;2023-01-15T03:27:38;20.27;;;9.55;;
67902;SDS011;54708;43.612;1.568;2023-01-15T03:32:34;17.27;;;9.10;;
67902;SDS011;54708;43.612;1.568;2023-01-15T03:34:59;18.65;;;8.45;;
67902;SDS011;54708;43.612;1.568;2023-01-15T03:37:27;21.85;;;9.20;;
67902;SDS011;54708;43.612;1.568;2023-01-15T03:39:53;26.42;;;11.50;;
67902;SDS011;54708;43.612;1.568;2023-01-15T03:50:31;20.73;;;9.80;;
67902;SDS011;54708;43.612;1.568;2023-01-15T03:53:22;20.70;;;10.90;;
67902;SDS011;54708;43.612;1.568;2023-01-15T03:58:17;24.67;;;11.25;;
67902;SDS011;54708;43.612;1.568;2023-01-15T04:00:52;22.00;;;11.75;;
67902;SDS011;54708;43.612;1.568;2023-01-15T04:03:19;20.63;;;8.93;;
67902;SDS011;54708;43.612;1.568;2023-01-15T04:05:47;21.40;;;9.25;;
67902;SDS011;54708;43.612;1.568;2023-01-15T04:08:13;17.30;;;9.65;;
67902;SDS011;54708;43.612;1.568;2023-01-15T04:10:49;21.67;;;10.77;;
67902;SDS011;54708;43.612;1.568;2023-01-15T04:13:16;19.63;;;9.75;;
67902;SDS011;54708;43.612;1.568;2023-01-15T04:15:41;19.40;;;9.45;;
67902;SDS011;54708;43.612;1.568;2023-01-15T04:18:07;20.30;;;10.00;;
67902;SDS011;54708;43.612;1.568;2023-01-15T04:20:32;22.95;;;10.23;;
67902;SDS011;54708;43.612;1.568;2023-01-15T04:22:57;21.13;;;10.55;;
67902;SDS011;54708;43.612;1.568;2023-01-15T04:25:23;22.65;;;9.82;;
67902;SDS011;54708;43.612;1.568;2023-01-15T04:27:48;19.70;;;10.02;;
67902;SDS011;54708;43.612;1.568;2023-01-15T04:30:14;19.42;;;9.60;;
67902;SDS011;54708;43.612;1.568;2023-01-15T04:32:41;18.33;;;9.77;;
67902;SDS011;54708;43.612;1.568;2023-01-15T04:35:07;19.35;;;8.80;;
67902;SDS011;54708;43.612;1.568;2023-01-15T04:37:32;20.98;;;10.32;;
67902;SDS011;54708;43.612;1.568;2023-01-15T04:39:58;22.20;;;10.88;;
67902;SDS011;54708;43.612;1.568;2023-01-15T04:42:23;22.07;;;10.10;;
67902;SDS011;54708;43.612;1.568;2023-01-15T04:45:07;15.90;;;8.40;;
67902;SDS011;54708;43.612;1.568;2023-01-15T04:47:34;18.15;;;10.20;;
67902;SDS011;54708;43.612;1.568;2023-01-15T04:49:59;28.10;;;10.65;;
67902;SDS011;54708;43.612;1.568;2023-01-15T04:52:24;22.48;;;10.75;;
67902;SDS011;54708;43.612;1.568;2023-01-15T04:54:50;21.23;;;10.32;;
67902;SDS011;54708;43.612;1.568;2023-01-15T04:57:15;28.48;;;10.98;;
67902;SDS011;54708;43.612;1.568;2023-01-15T04:59:41;19.40;;;9.10;;
67902;SDS011;54708;43.612;1.568;2023-01-15T05:02:07;16.83;;;8.07;;
67902;SDS011;54708;43.612;1.568;2023-01-15T05:04:32;25.30;;;9.20;;
67902;SDS011;54708;43.612;1.568;2023-01-15T05:06:59;21.10;;;9.90;;
67902;SDS011;54708;43.612;1.568;2023-01-15T05:09:25;23.80;;;9.02;;
67902;SDS011;54708;43.612;1.568;2023-01-15T05:11:50;18.30;;;9.80;;
67902;SDS011;54708;43.612;1.568;2023-01-15T05:14:16;20.65;;;9.48;;
67902;SDS011;54708;43.612;1.568;2023-01-15T05:16:41;23.58;;;10.20;;
67902;SDS011;54708;43.612;1.568;2023-01-15T05:19:06;20.88;;;9.93;;
67902;SDS011;54708;43.612;1.568;2023-01-15T05:21:34;20.55;;;9.65;;
67902;SDS011;54708;43.612;1.568;2023-01-15T05:24:02;18.85;;;9.55;;
67902;SDS011;54708;43.612;1.568;2023-01-15T05:26:29;15.60;;;10.68;;
67902;SDS011;54708;43.612;1.568;2023-01-15T05:28:58;21.80;;;11.18;;
67902;SDS011;54708;43.612;1.568;2023-01-15T05:31:24;19.17;;;12.60;;
67902;SDS011;54708;43.612;1.568;2023-01-15T05:33:51;20.08;;;11.18;;
67902;SDS011;54708;43.612;1.568;2023-01-15T05:36:19;25.08;;;11.98;;
67902;SDS011;54708;43.612;1.568;2023-01-15T05:38:45;24.65;;;12.15;;
67902;SDS011;54708;43.612;1.568;2023-01-15T05:41:12;20.65;;;11.98;;
67902;SDS011;54708;43.612;1.568;2023-01-15T05:44:01;17.40;;;11.93;;
67902;SDS011;54708;43.612;1.568;2023-01-15T05:46:28;23.67;;;13.82;;
67902;SDS011;54708;43.612;1.568;2023-01-15T05:48:54;19.02;;;12.45;;
67902;SDS011;54708;43.612;1.568;2023-01-15T05:51:23;27.45;;;12.73;;
67902;SDS011;54708;43.612;1.568;2023-01-15T05:53:48;22.25;;;13.45;;
67902;SDS011;54708;43.612;1.568;2023-01-15T05:56:14;22.23;;;13.35;;
67902;SDS011;54708;43.612;1.568;2023-01-15T05:58:39;19.90;;;13.18;;
67902;SDS011;54708;43.612;1.568;2023-01-15T06:01:05;28.45;;;14.35;;
67902;SDS011;54708;43.612;1.568;2023-01-15T06:03:32;27.60;;;13.18;;
67902;SDS011;54708;43.612;1.568;2023-01-15T06:05:57;21.02;;;13.18;;
67902;SDS011;54708;43.612;1.568;2023-01-15T06:08:23;17.17;;;11.98;;
67902;SDS011;54708;43.612;1.568;2023-01-15T06:10:48;20.30;;;11.45;;
67902;SDS011;54708;43.612;1.568;2023-01-15T06:13:14;18.75;;;11.73;;
67902;SDS011;54708;43.612;1.568;2023-01-15T06:15:41;17.38;;;11.00;;
67902;SDS011;54708;43.612;1.568;2023-01-15T06:18:06;16.60;;;11.50;;
67902;SDS011;54708;43.612;1.568;2023-01-15T06:20:34;19.17;;;10.75;;
67902;SDS011;54708;43.612;1.568;2023-01-15T06:23:00;19.92;;;10.95;;
67902;SDS011;54708;43.612;1.568;2023-01-15T06:25:25;20.08;;;11.85;;
67902;SDS011;54708;43.612;1.568;2023-01-15T06:27:51;20.35;;;10.60;;
67902;SDS011;54708;43.612;1.568;2023-01-15T06:30:16;17.55;;;11.18;;
67902;SDS011;54708;43.612;1.568;2023-01-15T06:32:42;16.92;;;10.20;;
67902;SDS011;54708;43.612;1.568;2023-01-15T06:35:07;16.58;;;12.25;;
67902;SDS011;54708;43.612;1.568;2023-01-15T06:37:33;15.90;;;9.70;;
67902;SDS011;54708;43.612;1.568;2023-01-15T06:39:59;15.25;;;10.50;;
67902;SDS011;54708;43.612;1.568;2023-01-15T06:42:24;17.27;;;10.20;;
67902;SDS011;54708;43.612;1.568;2023-01-15T06:45:11;13.93;;;10.15;;
67902;SDS011;54708;43.612;1.568;2023-01-15T06:47:55;13.75;;;9.85;;
67902;SDS011;54708;43.612;1.568;2023-01-15T06:50:21;12.30;;;8.43;;
67902;SDS011;54708;43.612;1.568;2023-01-15T06:52:47;12.35;;;7.57;;
67902;SDS011;54708;43.612;1.568;2023-01-15T06:55:12;11.93;;;6.95;;
67902;SDS011;54708;43.612;1.568;2023-01-15T06:57:38;9.57;;;6.43;;
67902;SDS011;54708;43.612;1.568;2023-01-15T07:00:04;9.75;;;6.20;;
67902;SDS011;54708;43.612;1.568;2023-01-15T07:02:31;9.18;;;6.10;;
67902;SDS011;54708;43.612;1.568;2023-01-15T07:04:56;12.95;;;6.35;;
67902;SDS011;54708;43.612;1.568;2023-01-15T07:07:22;13.45;;;6.97;;
67902;SDS011;54708;43.612;1.568;2023-01-15T07:09:47;9.27;;;5.78;;
67902;SDS011;54708;43.612;1.568;2023-01-15T07:12:13;10.52;;;6.45;;
67902;SDS011;54708;43.612;1.568;2023-01-15T07:14:39;10.10;;;5.50;;
67902;SDS011;54708;43.612;1.568;2023-01-15T07:17:04;7.35;;;4.63;;
67902;SDS011;54708;43.612;1.568;2023-01-15T07:19:29;7.25;;;4.13;;
67902;SDS011;54708;43.612;1.568;2023-01-15T07:21:55;9.15;;;3.33;;
67902;SDS011;54708;43.612;1.568;2023-01-15T07:24:20;6.68;;;3.67;;
67902;SDS011;54708;43.612;1.568;2023-01-15T07:26:46;6.30;;;3.95;;
67902;SDS011;54708;43.612;1.568;2023-01-15T07:29:11;4.68;;;3.20;;
67902;SDS011;54708;43.612;1.568;2023-01-15T07:31:37;2.25;;;2.03;;
67902;SDS011;54708;43.612;1.568;2023-01-15T07:34:03;10.98;;;3.75;;
67902;SDS011;54708;43.612;1.568;2023-01-15T07:36:29;3.75;;;3.05;;
67902;SDS011;54708;43.612;1.568;2023-01-15T07:38:54;3.05;;;2.35;;
67902;SDS011;54708;43.612;1.568;2023-01-15T07:41:20;5.70;;;2.38;;
67902;SDS011;54708;43.612;1.568;2023-01-15T07:44:04;6.85;;;2.38;;
67902;SDS011;54708;43.612;1.568;2023-01-15T07:46:48;2.70;;;1.30;;
67902;SDS011;54708;43.612;1.568;2023-01-15T07:49:32;2.70;;;1.30;;
67902;SDS011;54708;43.612;1.568;2023-01-15T07:52:09;5.13;;;1.50;;
67902;SDS011;54708;43.612;1.568;2023-01-15T07:54:35;2.22;;;1.27;;
67902;SDS011;54708;43.612;1.568;2023-01-15T07:57:01;2.53;;;1.48;;
67902;SDS011;54708;43.612;1.568;2023-01-15T07:59:27;2.70;;;1.70;;
67902;SDS011;54708;43.612;1.568;2023-01-15T08:01:53;2.80;;;1.08;;
67902;SDS011;54708;43.612;1.568;2023-01-15T08:04:18;3.28;;;1.10;;
67902;SDS011;54708;43.612;1.568;2023-01-15T08:06:44;1.30;;;1.20;;
67902;SDS011;54708;43.612;1.568;2023-01-15T08:09:09;1.95;;;1.60;;
67902;SDS011;54708;43.612;1.568;2023-01-15T08:11:34;1.73;;;1.50;;
67902;SDS011;54708;43.612;1.568;2023-01-15T08:14:18;6.20;;;1.50;;
67902;SDS011;54708;43.612;1.568;2023-01-15T08:17:02;2.17;;;1.10;;
67902;SDS011;54708;43.612;1.568;2023-01-15T08:19:28;2.35;;;1.70;;
67902;SDS011;54708;43.612;1.568;2023-01-15T08:21:54;1.63;;;1.20;;
67902;SDS011;54708;43.612;1.568;2023-01-15T08:24:21;2.80;;;1.10;;
67902;SDS011;54708;43.612;1.568;2023-01-15T08:26:47;1.38;;;1.27;;
67902;SDS011;54708;43.612;1.568;2023-01-15T08:29:12;1.40;;;0.98;;
67902;SDS011;54708;43.612;1.568;2023-01-15T08:31:37;2.25;;;1.50;;
67902;SDS011;54708;43.612;1.568;2023-01-15T08:34:05;1.92;;;0.95;;
67902;SDS011;54708;43.612;1.568;2023-01-15T08:36:31;4.15;;;1.25;;
67902;SDS011;54708;43.612;1.568;2023-01-15T08:38:56;1.45;;;1.33;;
67902;SDS011;54708;43.612;1.568;2023-01-15T08:41:21;1.35;;;1.00;;
67902;SDS011;54708;43.612;1.568;2023-01-15T08:43:47;0.90;;;0.90;;
67902;SDS011;54708;43.612;1.568;2023-01-15T08:46:12;1.23;;;0.82;;
67902;SDS011;54708;43.612;1.568;2023-01-15T08:48:38;0.95;;;0.70;;
67902;SDS011;54708;43.612;1.568;2023-01-15T08:51:04;2.88;;;1.00;;
67902;SDS011;54708;43.612;1.568;2023-01-15T08:53:30;1.75;;;0.77;;
67902;SDS011;54708;43.612;1.568;2023-01-15T08:55:56;1.38;;;0.80;;
67902;SDS011;54708;43.612;1.568;2023-01-15T08:58:21;1.63;;;0.98;;
67902;SDS011;54708;43.612;1.568;2023-01-15T09:00:47;1.35;;;1.15;;
67902;SDS011;54708;43.612;1.568;2023-01-15T09:03:13;0.98;;;0.95;;
67902;SDS011;54708;43.612;1.568;2023-01-15T09:05:38;2.90;;;1.15;;
67902;SDS011;54708;43.612;1.568;2023-01-15T09:08:05;3.38;;;1.50;;
67902;SDS011;54708;43.612;1.568;2023-01-15T09:10:31;2.90;;;1.92;;
67902;SDS011;54708;43.612;1.568;2023-01-15T09:13:00;2.38;;;1.90;;
67902;SDS011;54708;43.612;1.568;2023-01-15T09:15:29;2.35;;;2.08;;
67902;SDS011;54708;43.612;1.568;2023-01-15T09:17:56;2.85;;;1.65;;
67902;SDS011;54708;43.612;1.568;2023-01-15T09:20:22;2.55;;;1.52;;
67902;SDS011;54708;43.612;1.568;2023-01-15T09:22:48;2.88;;;1.80;;
67902;SDS011;54708;43.612;1.568;2023-01-15T09:25:14;9.35;;;2.72;;
67902;SDS011;54708;43.612;1.568;2023-01-15T09:27:41;1.83;;;1.58;;
67902;SDS011;54708;43.612;1.568;2023-01-15T09:30:08;10.20;;;3.78;;
67902;SDS011;54708;43.612;1.568;2023-01-15T09:32:38;2.95;;;2.65;;
67902;SDS011;54708;43.612;1.568;2023-01-15T09:35:04;2.72;;;2.20;;
67902;SDS011;54708;43.612;1.568;2023-01-15T09:37:30;3.15;;;2.10;;
67902;SDS011;54708;43.612;1.568;2023-01-15T09:39:55;6.60;;;3.78;;
67902;SDS011;54708;43.612;1.568;2023-01-15T09:45:06;21.75;;;12.90;;
67902;SDS011;54708;43.612;1.568;2023-01-15T09:47:43;2.45;;;2.00;;
67902;SDS011;54708;43.612;1.568;2023-01-15T09:50:17;3.45;;;1.65;;
67902;SDS011;54708;43.612;1.568;2023-01-15T09:55:15;1.60;;;1.50;;
67902;SDS011;54708;43.612;1.568;2023-01-15T09:57:43;3.78;;;2.80;;
67902;SDS011;54708;43.612;1.568;2023-01-15T10:00:20;4.05;;;1.80;;
67902;SDS011;54708;43.612;1.568;2023-01-15T10:02:56;3.38;;;2.20;;
67902;SDS011;54708;43.612;1.568;2023-01-15T10:05:27;4.40;;;2.58;;
67902;SDS011;54708;43.612;1.568;2023-01-15T10:08:10;4.00;;;2.42;;
67902;SDS011;54708;43.612;1.568;2023-01-15T10:10:41;9.63;;;3.50;;
67902;SDS011;54708;43.612;1.568;2023-01-15T10:13:26;4.93;;;2.22;;
67902;SDS011;54708;43.612;1.568;2023-01-15T10:15:55;5.47;;;2.60;;
67902;SDS011;54708;43.612;1.568;2023-01-15T10:18:22;4.65;;;2.58;;
67902;SDS011;54708;43.612;1.568;2023-01-15T10:20:51;4.93;;;3.40;;
67902;SDS011;54708;43.612;1.568;2023-01-15T10:23:33;8.00;;;3.13;;
67902;SDS011;54708;43.612;1.568;2023-01-15T10:28:47;3.70;;;2.67;;
67902;SDS011;54708;43.612;1.568;2023-01-15T10:31:34;4.45;;;2.80;;
67902;SDS011;54708;43.612;1.568;2023-01-15T10:34:26;7.22;;;3.65;;
67902;SDS011;54708;43.612;1.568;2023-01-15T10:47:36;6.80;;;4.13;;
67902;SDS011;54708;43.612;1.568;2023-01-15T10:50:15;2.03;;;1.83;;
67902;SDS011;54708;43.612;1.568;2023-01-15T10:52:45;5.40;;;2.55;;
67902;SDS011;54708;43.612;1.568;2023-01-15T10:55:23;3.90;;;2.60;;
67902;SDS011;54708;43.612;1.568;2023-01-15T10:58:11;2.85;;;2.22;;
67902;SDS011;54708;43.612;1.568;2023-01-15T11:00:38;5.03;;;2.40;;
67902;SDS011;54708;43.612;1.568;2023-01-15T11:03:05;6.63;;;3.95;;
67902;SDS011;54708;43.612;1.568;2023-01-15T11:05:38;5.97;;;3.60;;
67902;SDS011;54708;43.612;1.568;2023-01-15T11:08:05;4.00;;;3.25;;
67902;SDS011;54708;43.612;1.568;2023-01-15T11:10:32;2.90;;;2.50;;
67902;SDS011;54708;43.612;1.568;2023-01-15T11:13:07;2.42;;;1.98;;
67902;SDS011;54708;43.612;1.568;2023-01-15T11:15:57;2.92;;;1.95;;
67902;SDS011;54708;43.612;1.568;2023-01-15T11:18:41;4.68;;;2.42;;
67902;SDS011;54708;43.612;1.568;2023-01-15T11:21:26;2.67;;;2.33;;
67902;SDS011;54708;43.612;1.568;2023-01-15T11:23:53;3.80;;;2.28;;
67902;SDS011;54708;43.612;1.568;2023-01-15T11:26:27;4.57;;;3.20;;
67902;SDS011;54708;43.612;1.568;2023-01-15T11:28:54;5.22;;;3.80;;
67902;SDS011;54708;43.612;1.568;2023-01-15T11:31:20;6.18;;;3.08;;
67902;SDS011;54708;43.612;1.568;2023-01-15T11:33:59;4.55;;;3.13;;
67902;SDS011;54708;43.612;1.568;2023-01-15T11:36:26;3.35;;;2.40;;
67902;SDS011;54708;43.612;1.568;2023-01-15T11:38:52;4.88;;;3.08;;
67902;SDS011;54708;43.612;1.568;2023-01-15T11:41:21;3.47;;;2.35;;
67902;SDS011;54708;43.612;1.568;2023-01-15T11:43:53;3.40;;;2.08;;
67902;SDS011;54708;43.612;1.568;2023-01-15T11:46:40;2.22;;;1.65;;
67902;SDS011;54708;43.612;1.568;2023-01-15T11:49:25;5.13;;;1.73;;
67902;SDS011;54708;43.612;1.568;2023-01-15T11:52:10;4.75;;;3.00;;
67902;SDS011;54708;43.612;1.568;2023-01-15T11:54:38;3.67;;;2.55;;
67902;SDS011;54708;43.612;1.568;2023-01-15T11:57:06;2.60;;;1.40;;
67902;SDS011;54708;43.612;1.568;2023-01-15T11:59:32;4.38;;;2.80;;
67902;SDS011;54708;43.612;1.568;2023-01-15T12:01:58;7.85;;;3.45;;
67902;SDS011;54708;43.612;1.568;2023-01-15T12:06:56;6.18;;;1.95;;
67902;SDS011;54708;43.612;1.568;2023-01-15T12:09:35;4.10;;;1.50;;
67902;SDS011;54708;43.612;1.568;2023-01-15T12:14:53;7.18;;;3.10;;
67902;SDS011;54708;43.612;1.568;2023-01-15T12:23:19;8.68;;;3.40;;
67902;SDS011;54708;43.612;1.568;2023-01-15T12:31:53;4.30;;;1.95;;
67902;SDS011;54708;43.612;1.568;2023-01-15T12:37:14;4.28;;;2.42;;
67902;SDS011;54708;43.612;1.568;2023-01-15T12:39:46;3.65;;;2.22;;
67902;SDS011;54708;43.612;1.568;2023-01-15T12:42:16;4.47;;;1.60;;
67902;SDS011;54708;43.612;1.568;2023-01-15T12:45:06;3.92;;;2.28;;
67902;SDS011;54708;43.612;1.568;2023-01-15T12:50:07;3.25;;;1.73;;
67902;SDS011;54708;43.612;1.568;2023-01-15T12:52:42;2.60;;;1.88;;
67902;SDS011;54708;43.612;1.568;2023-01-15T12:55:14;9.52;;;2.05;;
67902;SDS011;54708;43.612;1.568;2023-01-15T12:57:45;2.42;;;2.17;;
67902;SDS011;54708;43.612;1.568;2023-01-15T13:00:26;3.80;;;2.10;;
67902;SDS011;54708;43.612;1.568;2023-01-15T13:06:14;2.83;;;2.10;;
67902;SDS011;54708;43.612;1.568;2023-01-15T13:08:34;7.70;;;3.67;;
67902;SDS011;54708;43.612;1.568;2023-01-15T13:11:03;7.60;;;3.55;;
67902;SDS011;54708;43.612;1.568;2023-01-15T13:13:31;11.40;;;5.50;;
67902;SDS011;54708;43.612;1.568;2023-01-15T13:21:12;5.50;;;1.80;;
67902;SDS011;54708;43.612;1.568;2023-01-15T13:23:47;4.22;;;2.17;;
67902;SDS011;54708;43.612;1.568;2023-01-15T13:29:42;2.85;;;1.38;;
67902;SDS011;54708;43.612;1.568;2023-01-15T13:32:29;6.22;;;2.33;;
67902;SDS011;54708;43.612;1.568;2023-01-15T13:35:43;5.15;;;2.58;;
67902;SDS011;54708;43.612;1.568;2023-01-15T13:37:44;5.63;;;2.47;;
67902;SDS011;54708;43.612;1.568;2023-01-15T13:40:21;5.53;;;2.80;;
67902;SDS011;54708;43.612;1.568;2023-01-15T13:42:49;5.45;;;2.92;;
67902;SDS011;54708;43.612;1.568;2023-01-15T13:45:49;6.25;;;3.22;;
67902;SDS011;54708;43.612;1.568;2023-01-15T13:50:52;7.35;;;3.10;;
67902;SDS011;54708;43.612;1.568;2023-01-15T13:53:25;7.10;;;2.50;;
67902;SDS011;54708;43.612;1.568;2023-01-15T13:55:54;5.45;;;2.17;;
67902;SDS011;54708;43.612;1.568;2023-01-15T14:01:06;3.65;;;2.45;;
67902;SDS011;54708;43.612;1.568;2023-01-15T14:03:54;3.28;;;2.65;;
67902;SDS011;54708;43.612;1.568;2023-01-15T14:06:22;7.65;;;2.83;;
67902;SDS011;54708;43.612;1.568;2023-01-15T14:08:47;8.65;;;2.63;;
67902;SDS011;54708;43.612;1.568;2023-01-15T14:14:33;10.85;;;3.30;;
67902;SDS011;54708;43.612;1.568;2023-01-15T14:22:39;6.18;;;3.85;;
67902;SDS011;54708;43.612;1.568;2023-01-15T14:36:38;6.05;;;3.00;;
67902;SDS011;54708;43.612;1.568;2023-01-15T14:45:07;6.88;;;3.72;;
67902;SDS011;54708;43.612;1.568;2023-01-15T14:47:48;12.38;;;5.22;;
67902;SDS011;54708;43.612;1.568;2023-01-15T14:50:22;9.50;;;4.00;;
67902;SDS011;54708;43.612;1.568;2023-01-15T14:52:52;10.90;;;4.68;;
67902;SDS011;54708;43.612;1.568;2023-01-15T14:55:19;5.22;;;3.83;;
67902;SDS011;54708;43.612;1.568;2023-01-15T14:57:47;7.60;;;3.08;;
67902;SDS011;54708;43.612;1.568;2023-01-15T15:00:19;6.95;;;3.33;;
67902;SDS011;54708;43.612;1.568;2023-01-15T15:02:46;10.45;;;5.15;;
67902;SDS011;54708;43.612;1.568;2023-01-15T15:05:14;10.43;;;3.72;;
67902;SDS011;54708;43.612;1.568;2023-01-15T15:07:45;15.40;;;4.95;;
67902;SDS011;54708;43.612;1.568;2023-01-15T15:18:00;7.53;;;4.07;;
67902;SDS011;54708;43.612;1.568;2023-01-15T15:23:03;7.07;;;3.20;;
67902;SDS011;54708;43.612;1.568;2023-01-15T15:25:34;8.90;;;3.60;;
67902;SDS011;54708;43.612;1.568;2023-01-15T15:28:01;4.45;;;2.72;;
67902;SDS011;54708;43.612;1.568;2023-01-15T15:30:31;11.82;;;3.45;;
67902;SDS011;54708;43.612;1.568;2023-01-15T15:32:58;6.28;;;2.88;;
67902;SDS011;54708;43.612;1.568;2023-01-15T15:35:26;9.82;;;2.80;;
67902;SDS011;54708;43.612;1.568;2023-01-15T15:37:52;6.10;;;3.55;;
67902;SDS011;54708;43.612;1.568;2023-01-15T15:40:19;4.32;;;2.17;;
67902;SDS011;54708;43.612;1.568;2023-01-15T15:45:32;4.28;;;2.20;;
67902;SDS011;54708;43.612;1.568;2023-01-15T15:48:17;6.85;;;1.92;;
67902;SDS011;54708;43.612;1.568;2023-01-15T15:51:03;7.30;;;2.45;;
67902;SDS011;54708;43.612;1.568;2023-01-15T15:53:29;5.40;;;1.73;;
67902;SDS011;54708;43.612;1.568;2023-01-15T15:55:55;4.22;;;2.08;;
67902;SDS011;54708;43.612;1.568;2023-01-15T15:58:32;5.53;;;1.95;;
67902;SDS011;54708;43.612;1.568;2023-01-15T16:01:00;6.40;;;2.72;;
67902;SDS011;54708;43.612;1.568;2023-01-15T16:03:27;6.07;;;1.95;;
67902;SDS011;54708;43.612;1.568;2023-01-15T16:06:16;3.53;;;1.80;;
67902;SDS011;54708;43.612;1.568;2023-01-15T16:08:50;5.03;;;2.35;;
67902;SDS011;54708;43.612;1.568;2023-01-15T16:11:17;3.45;;;2.17;;
67902;SDS011;54708;43.612;1.568;2023-01-15T16:13:43;2.75;;;1.88;;
67902;SDS011;54708;43.612;1.568;2023-01-15T16:16:10;6.63;;;3.20;;
67902;SDS011;54708;43.612;1.568;2023-01-15T16:18:41;9.95;;;4.05;;
67902;SDS011;54708;43.612;1.568;2023-01-15T16:21:33;6.35;;;5.72;;
67902;SDS011;54708;43.612;1.568;2023-01-15T16:24:01;6.00;;;3.15;;
67902;SDS011;54708;43.612;1.568;2023-01-15T16:26:51;4.90;;;2.90;;
67902;SDS011;54708;43.612;1.568;2023-01-15T16:29:20;6.80;;;4.80;;
67902;SDS011;54708;43.612;1.568;2023-01-15T16:31:47;7.60;;;4.90;;
67902;SDS011;54708;43.612;1.568;2023-01-15T16:34:20;6.82;;;4.13;;
67902;SDS011;54708;43.612;1.568;2023-01-15T16:36:54;9.63;;;6.15;;
67902;SDS011;54708;43.612;1.568;2023-01-15T16:39:21;16.10;;;6.35;;
67902;SDS011;54708;43.612;1.568;2023-01-15T16:41:48;8.05;;;4.68;;
67902;SDS011;54708;43.612;1.568;2023-01-15T16:46:59;10.40;;;6.45;;
67902;SDS011;54708;43.612;1.568;2023-01-15T16:49:26;15.05;;;9.15;;
67902;SDS011;54708;43.612;1.568;2023-01-15T16:51:54;9.45;;;5.68;;
67902;SDS011;54708;43.612;1.568;2023-01-15T16:56:55;9.70;;;5.05;;
67902;SDS011;54708;43.612;1.568;2023-01-15T17:01:52;12.13;;;6.65;;
67902;SDS011;54708;43.612;1.568;2023-01-15T17:04:36;8.05;;;4.60;;
67902;SDS011;54708;43.612;1.568;2023-01-15T17:09:31;9.95;;;4.45;;
67902;SDS011;54708;43.612;1.568;2023-01-15T17:11:57;7.20;;;3.80;;